createdAt,value
2018-12-06T00:00:05.187Z,0
2018-12-06T00:01:05.173Z,0
2018-12-06T00:02:04.652Z,0
2018-12-06T00:03:05.125Z,0
2018-12-06T00:04:05.115Z,0
2018-12-06T00:05:05.101Z,0
2018-12-06T00:06:05.080Z,0
2018-12-06T00:07:05.057Z,0
2018-12-06T00:08:05.041Z,0
2018-12-06T00:09:05.025Z,0
2018-12-06T00:10:05.013Z,0
2018-12-06T00:11:04.745Z,0
2018-12-06T00:12:04.974Z,0
2018-12-06T00:13:04.956Z,0
2018-12-06T00:14:04.939Z,0
2018-12-06T00:15:04.920Z,0
2018-12-06T00:16:04.658Z,0
2018-12-06T00:17:04.884Z,0
2018-12-06T00:18:04.872Z,0
2018-12-06T00:19:04.848Z,0
2018-12-06T00:20:04.338Z,0
2018-12-06T00:21:04.836Z,0
2018-12-06T00:22:04.799Z,0
2018-12-06T00:23:04.542Z,0
2018-12-06T00:24:04.767Z,0
2018-12-06T00:25:04.791Z,0
2018-12-06T00:26:04.733Z,0
2018-12-06T00:27:04.755Z,0
2018-12-06T00:28:04.706Z,0
2018-12-06T00:29:04.440Z,0
2018-12-06T00:30:04.659Z,0
2018-12-06T00:31:04.653Z,0
2018-12-06T00:32:04.623Z,0
2018-12-06T00:33:04.360Z,0
2018-12-06T00:34:04.592Z,0
2018-12-06T00:35:04.576Z,0
2018-12-06T00:36:04.313Z,0
2018-12-06T00:37:04.385Z,0
2018-12-06T00:38:04.573Z,0
2018-12-06T00:39:04.016Z,0
2018-12-06T00:40:04.261Z,0
2018-12-06T00:41:04.232Z,0
2018-12-06T00:42:04.452Z,0
2018-12-06T00:43:04.189Z,0
2018-12-06T00:44:04.431Z,0
2018-12-06T00:45:04.408Z,0
2018-12-06T00:46:04.136Z,0
2018-12-06T00:47:04.124Z,0
2018-12-06T00:48:04.106Z,0
2018-12-06T00:49:04.337Z,0
2018-12-06T00:50:04.316Z,0
2018-12-06T00:51:04.048Z,0
2018-12-06T00:52:04.279Z,0
2018-12-06T00:53:04.013Z,0
2018-12-06T00:54:04.247Z,0
2018-12-06T00:55:04.233Z,0
2018-12-06T00:56:04.214Z,0
2018-12-06T00:57:03.696Z,0
2018-12-06T00:58:04.174Z,0
2018-12-06T00:59:03.927Z,0
2018-12-06T01:00:04.138Z,0
2018-12-06T01:01:03.880Z,0
2018-12-06T01:02:04.121Z,0
2018-12-06T01:03:04.085Z,0
2018-12-06T01:04:03.909Z,0
2018-12-06T01:05:04.052Z,0
2018-12-06T01:06:04.035Z,0
2018-12-06T01:07:04.017Z,0
2018-12-06T01:08:03.751Z,0
2018-12-06T01:09:03.993Z,0
2018-12-06T01:10:03.968Z,0
2018-12-06T01:11:03.951Z,0
2018-12-06T01:12:03.927Z,0
2018-12-06T01:13:03.977Z,0
2018-12-06T01:14:03.649Z,0
2018-12-06T01:15:03.886Z,0
2018-12-06T01:16:03.613Z,0
2018-12-06T01:17:03.840Z,0
2018-12-06T01:18:03.326Z,0
2018-12-06T01:19:03.558Z,0
2018-12-06T01:20:03.535Z,0
2018-12-06T01:21:03.769Z,0
2018-12-06T01:22:03.757Z,0
2018-12-06T01:23:03.738Z,0
2018-12-06T01:24:03.471Z,0
2018-12-06T01:25:03.705Z,0
2018-12-06T01:26:03.682Z,0
2018-12-06T01:27:03.669Z,0
2018-12-06T01:28:03.648Z,0
2018-12-06T01:29:03.630Z,0
2018-12-06T01:30:03.625Z,0
2018-12-06T01:31:03.349Z,0
2018-12-06T01:32:03.079Z,0
2018-12-06T01:33:03.580Z,0
2018-12-06T01:34:03.543Z,0
2018-12-06T01:35:03.270Z,0
2018-12-06T01:36:03.254Z,0
2018-12-06T01:37:03.564Z,0
2018-12-06T01:38:03.473Z,0
2018-12-06T01:39:03.468Z,0
2018-12-06T01:40:03.188Z,0
2018-12-06T01:41:03.419Z,0
2018-12-06T01:42:03.159Z,0
2018-12-06T01:43:03.389Z,0
2018-12-06T01:44:03.366Z,0
2018-12-06T01:45:03.346Z,0
2018-12-06T01:46:03.325Z,0
2018-12-06T01:47:03.063Z,0
2018-12-06T01:48:03.291Z,0
2018-12-06T01:49:03.282Z,0
2018-12-06T01:50:03.008Z,0
2018-12-06T01:51:03.242Z,0
2018-12-06T01:52:03.218Z,0
2018-12-06T01:53:03.284Z,0
2018-12-06T01:54:02.938Z,0
2018-12-06T01:55:03.170Z,0
2018-12-06T01:56:03.145Z,0
2018-12-06T01:57:03.135Z,0
2018-12-06T01:58:02.869Z,0
2018-12-06T01:59:03.101Z,0
2018-12-06T02:00:03.080Z,0
2018-12-06T02:01:02.819Z,0
2018-12-06T02:02:02.796Z,0
2018-12-06T02:03:02.778Z,0
2018-12-06T02:04:03.010Z,0
2018-12-06T02:05:02.991Z,0
2018-12-06T02:06:02.722Z,0
2018-12-06T02:07:02.957Z,0
2018-12-06T02:08:02.689Z,0
2018-12-06T02:09:02.920Z,0
2018-12-06T02:10:02.921Z,0
2018-12-06T02:11:02.883Z,0
2018-12-06T02:12:02.867Z,0
2018-12-06T02:13:02.601Z,0
2018-12-06T02:14:02.832Z,0
2018-12-06T02:15:02.634Z,0
2018-12-06T02:16:02.799Z,0
2018-12-06T02:17:03.028Z,0
2018-12-06T02:18:02.761Z,0
2018-12-06T02:19:02.755Z,0
2018-12-06T02:20:02.745Z,0
2018-12-06T02:21:02.462Z,0
2018-12-06T02:22:02.688Z,0
2018-12-06T02:23:02.672Z,0
2018-12-06T02:24:02.160Z,0
2018-12-06T02:25:02.389Z,0
2018-12-06T02:26:02.620Z,0
2018-12-06T02:27:02.603Z,0
2018-12-06T02:28:02.336Z,0
2018-12-06T02:29:02.315Z,0
2018-12-06T02:30:02.553Z,0
2018-12-06T02:31:02.556Z,0
2018-12-06T02:32:02.515Z,0
2018-12-06T02:33:02.527Z,0
2018-12-06T02:34:02.500Z,0
2018-12-06T02:35:02.224Z,0
2018-12-06T02:36:02.446Z,0
2018-12-06T02:37:02.442Z,0
2018-12-06T02:38:02.412Z,0
2018-12-06T02:39:02.392Z,0
2018-12-06T02:40:02.369Z,0
2018-12-06T02:41:02.382Z,0
2018-12-06T02:42:02.346Z,0
2018-12-06T02:43:02.325Z,0
2018-12-06T02:44:02.458Z,0
2018-12-06T02:45:02.291Z,0
2018-12-06T02:46:01.793Z,0
2018-12-06T02:47:02.039Z,0
2018-12-06T02:48:02.238Z,0
2018-12-06T02:49:01.966Z,0
2018-12-06T02:50:01.953Z,0
2018-12-06T02:51:02.189Z,0
2018-12-06T02:52:02.169Z,0
2018-12-06T02:53:01.901Z,0
2018-12-06T02:54:02.148Z,0
2018-12-06T02:55:02.114Z,0
2018-12-06T02:56:01.854Z,0
2018-12-06T02:57:02.079Z,0
2018-12-06T02:58:01.813Z,0
2018-12-06T02:59:02.107Z,0
2018-12-06T03:00:02.025Z,0
2018-12-06T03:01:02.148Z,0
2018-12-06T03:02:01.988Z,0
2018-12-06T03:03:02.132Z,0
2018-12-06T03:04:01.986Z,0
2018-12-06T03:05:01.687Z,0
2018-12-06T03:06:01.918Z,0
2018-12-06T03:07:01.434Z,0
2018-12-06T03:08:01.887Z,0
2018-12-06T03:09:01.903Z,0
2018-12-06T03:10:01.855Z,0
2018-12-06T03:11:01.587Z,0
2018-12-06T03:12:01.833Z,0
2018-12-06T03:13:01.872Z,0
2018-12-06T03:14:01.524Z,0
2018-12-06T03:15:01.286Z,0
2018-12-06T03:16:01.754Z,0
2018-12-06T03:17:01.234Z,0
2018-12-06T03:18:01.462Z,0
2018-12-06T03:19:01.699Z,0
2018-12-06T03:20:01.677Z,0
2018-12-06T03:21:01.668Z,0
2018-12-06T03:22:01.657Z,0
2018-12-06T03:23:01.891Z,0
2018-12-06T03:24:01.350Z,0
2018-12-06T03:25:01.623Z,0
2018-12-06T03:26:01.417Z,0
2018-12-06T03:27:01.550Z,0
2018-12-06T03:28:01.534Z,0
2018-12-06T03:29:02.567Z,0
2018-12-06T03:30:01.500Z,0
2018-12-06T03:31:01.659Z,0
2018-12-06T03:32:01.506Z,0
2018-12-06T03:33:01.494Z,0
2018-12-06T03:34:01.471Z,0
2018-12-06T03:35:01.159Z,0
2018-12-06T03:36:01.404Z,0
2018-12-06T03:37:01.378Z,0
2018-12-06T03:38:01.353Z,0
2018-12-06T03:39:01.089Z,0
2018-12-06T03:40:01.357Z,0
2018-12-06T03:41:01.302Z,0
2018-12-06T03:42:01.292Z,0
2018-12-06T03:43:01.033Z,0
2018-12-06T03:44:01.031Z,0
2018-12-06T03:45:01.242Z,0
2018-12-06T03:46:01.233Z,0
2018-12-06T03:47:01.287Z,0
2018-12-06T03:48:01.185Z,0
2018-12-06T03:49:01.167Z,0
2018-12-06T03:50:01.206Z,0
2018-12-06T03:51:01.138Z,0
2018-12-06T03:52:01.122Z,0
2018-12-06T03:53:01.113Z,0
2018-12-06T03:54:01.086Z,0
2018-12-06T03:55:01.074Z,0
2018-12-06T03:56:01.059Z,0
2018-12-06T03:57:00.780Z,0
2018-12-06T03:58:01.009Z,0
2018-12-06T03:59:00.753Z,0
2018-12-06T04:00:00.995Z,0
2018-12-06T04:01:00.967Z,0
2018-12-06T04:02:00.703Z,0
2018-12-06T04:03:00.793Z,0
2018-12-06T04:04:00.770Z,0
2018-12-06T04:05:00.887Z,0
2018-12-06T04:06:00.876Z,0
2018-12-06T04:07:00.859Z,0
2018-12-06T04:08:00.840Z,0
2018-12-06T04:09:00.344Z,0
2018-12-06T04:10:01.633Z,0
2018-12-06T04:11:00.806Z,0
2018-12-06T04:12:00.785Z,0
2018-12-06T04:13:00.519Z,0
2018-12-06T04:14:00.543Z,0
2018-12-06T04:15:00.470Z,0
2018-12-06T04:16:00.702Z,0
2018-12-06T04:17:00.702Z,0
2018-12-06T04:18:00.714Z,0
2018-12-06T04:19:00.650Z,0
2018-12-06T04:20:00.377Z,0
2018-12-06T04:21:00.739Z,0
2018-12-06T04:22:00.589Z,0
2018-12-06T04:23:00.329Z,0
2018-12-06T04:24:00.306Z,0
2018-12-06T04:25:00.543Z,0
2018-12-06T04:26:00.534Z,0
2018-12-06T04:27:00.507Z,0
2018-12-06T04:28:00.257Z,0
2018-12-06T04:29:00.625Z,0
2018-12-06T04:30:00.538Z,0
2018-12-06T04:31:00.437Z,0
2018-12-06T04:32:00.430Z,0
2018-12-06T04:33:00.409Z,0
2018-12-06T04:34:00.383Z,0
2018-12-06T04:35:00.176Z,0
2018-12-06T04:36:00.347Z,0
2018-12-06T04:37:00.332Z,0
2018-12-06T04:38:00.337Z,0
2018-12-06T04:39:00.297Z,0
2018-12-06T04:39:59.799Z,0
2018-12-06T04:41:00.295Z,0
2018-12-06T04:42:00.331Z,0
2018-12-06T04:43:00.228Z,0
2018-12-06T04:44:00.234Z,0
2018-12-06T04:45:00.199Z,0
2018-12-06T04:46:00.170Z,0
2018-12-06T04:47:00.161Z,0
2018-12-06T04:48:00.149Z,0
2018-12-06T04:49:00.159Z,0
2018-12-06T04:50:00.111Z,0
2018-12-06T04:50:59.870Z,0
2018-12-06T04:51:59.826Z,0
2018-12-06T04:53:00.058Z,0
2018-12-06T04:54:00.192Z,0
2018-12-06T04:55:00.021Z,0
2018-12-06T04:56:00.008Z,0
2018-12-06T04:56:59.737Z,0
2018-12-06T04:57:59.977Z,0
2018-12-06T04:58:59.706Z,0
2018-12-06T04:59:59.957Z,0
2018-12-06T05:00:59.787Z,0
2018-12-06T05:01:59.900Z,0
2018-12-06T05:02:59.885Z,0
2018-12-06T05:03:59.868Z,0
2018-12-06T05:04:59.849Z,0
2018-12-06T05:05:59.578Z,0
2018-12-06T05:06:59.866Z,0
2018-12-06T05:07:59.851Z,0
2018-12-06T05:09:01.324Z,0
2018-12-06T05:09:59.510Z,0
2018-12-06T05:10:59.743Z,0
2018-12-06T05:11:59.721Z,0
2018-12-06T05:12:59.710Z,0
2018-12-06T05:13:59.940Z,0
2018-12-06T05:14:59.677Z,0
2018-12-06T05:15:59.655Z,0
2018-12-06T05:16:59.641Z,0
2018-12-06T05:17:59.123Z,0
2018-12-06T05:18:59.679Z,0
2018-12-06T05:19:59.335Z,0
2018-12-06T05:20:59.076Z,0
2018-12-06T05:21:59.556Z,0
2018-12-06T05:22:59.536Z,0
2018-12-06T05:23:59.264Z,0
2018-12-06T05:24:59.498Z,0
2018-12-06T05:25:59.239Z,0
2018-12-06T05:26:59.469Z,0
2018-12-06T05:27:59.442Z,0
2018-12-06T05:28:59.731Z,0
2018-12-06T05:29:59.412Z,0
2018-12-06T05:30:59.147Z,0
2018-12-06T05:31:59.127Z,0
2018-12-06T05:32:59.363Z,0
2018-12-06T05:33:59.352Z,0
2018-12-06T05:34:59.341Z,0
2018-12-06T05:35:58.812Z,0
2018-12-06T05:36:59.290Z,0
2018-12-06T05:37:59.274Z,0
2018-12-06T05:38:59.264Z,0
2018-12-06T05:39:58.999Z,0
2018-12-06T05:40:59.220Z,0
2018-12-06T05:41:59.215Z,0
2018-12-06T05:42:59.193Z,0
2018-12-06T05:43:58.927Z,0
2018-12-06T05:44:59.206Z,0
2018-12-06T05:45:59.139Z,0
2018-12-06T05:46:59.115Z,0
2018-12-06T05:47:58.853Z,0
2018-12-06T05:48:59.078Z,0
2018-12-06T05:49:59.068Z,0
2018-12-06T05:50:58.803Z,0
2018-12-06T05:51:59.030Z,0
2018-12-06T05:52:58.771Z,0
2018-12-06T05:53:58.755Z,0
2018-12-06T05:54:58.724Z,0
2018-12-06T05:55:58.965Z,0
2018-12-06T05:56:58.947Z,0
2018-12-06T05:57:58.927Z,0
2018-12-06T05:58:58.915Z,0
2018-12-06T05:59:58.893Z,0
2018-12-06T06:00:58.873Z,0
2018-12-06T06:01:58.864Z,0
2018-12-06T06:02:58.840Z,0
2018-12-06T06:03:58.575Z,0
2018-12-06T06:04:58.805Z,0
2018-12-06T06:05:58.786Z,0
2018-12-06T06:06:58.781Z,0
2018-12-06T06:07:58.755Z,0
2018-12-06T06:08:58.495Z,0
2018-12-06T06:09:58.717Z,0
2018-12-06T06:10:58.697Z,0
2018-12-06T06:11:58.686Z,0
2018-12-06T06:12:58.673Z,0
2018-12-06T06:13:58.399Z,0
2018-12-06T06:14:58.637Z,0
2018-12-06T06:15:58.624Z,0
2018-12-06T06:16:58.590Z,0
2018-12-06T06:17:58.396Z,0
2018-12-06T06:18:58.560Z,0
2018-12-06T06:19:58.549Z,0
2018-12-06T06:20:58.527Z,0
2018-12-06T06:21:58.270Z,0
2018-12-06T06:22:58.489Z,0
2018-12-06T06:23:58.473Z,0
2018-12-06T06:24:58.457Z,0
2018-12-06T06:25:58.438Z,0
2018-12-06T06:26:58.180Z,0
2018-12-06T06:27:58.407Z,0
2018-12-06T06:28:58.137Z,0
2018-12-06T06:29:58.372Z,0
2018-12-06T06:30:58.446Z,0
2018-12-06T06:31:58.343Z,0
2018-12-06T06:32:58.319Z,0
2018-12-06T06:33:58.122Z,0
2018-12-06T06:34:58.286Z,0
2018-12-06T06:35:58.027Z,0
2018-12-06T06:36:58.005Z,0
2018-12-06T06:37:58.243Z,0
2018-12-06T06:38:58.224Z,0
2018-12-06T06:39:57.946Z,0
2018-12-06T06:40:57.930Z,0
2018-12-06T06:41:58.230Z,0
2018-12-06T06:42:58.153Z,0
2018-12-06T06:43:58.132Z,0
2018-12-06T06:44:58.111Z,0
2018-12-06T06:45:58.099Z,0
2018-12-06T06:46:58.077Z,0
2018-12-06T06:47:58.062Z,0
2018-12-06T06:48:58.057Z,0
2018-12-06T06:49:58.029Z,0
2018-12-06T06:50:57.803Z,0
2018-12-06T06:51:58.002Z,0
2018-12-06T06:52:58.922Z,0
2018-12-06T06:53:57.954Z,0
2018-12-06T06:54:57.947Z,0
2018-12-06T06:55:57.922Z,0
2018-12-06T06:56:57.903Z,0
2018-12-06T06:57:57.893Z,0
2018-12-06T06:58:58.644Z,0
2018-12-06T06:59:57.607Z,0
2018-12-06T07:00:57.592Z,0
2018-12-06T07:01:57.845Z,0
2018-12-06T07:02:57.554Z,0
2018-12-06T07:03:57.787Z,5
2018-12-06T07:04:58.076Z,5
2018-12-06T07:05:57.500Z,5
2018-12-06T07:06:57.484Z,5
2018-12-06T07:07:57.719Z,5
2018-12-06T07:08:57.708Z,5
2018-12-06T07:09:57.678Z,10
2018-12-06T07:10:57.669Z,10
2018-12-06T07:11:57.403Z,10
2018-12-06T07:12:57.653Z,10
2018-12-06T07:13:57.618Z,15
2018-12-06T07:14:57.595Z,15
2018-12-06T07:15:57.583Z,15
2018-12-06T07:16:57.312Z,15
2018-12-06T07:17:57.305Z,20
2018-12-06T07:18:57.529Z,20
2018-12-06T07:19:57.520Z,20
2018-12-06T07:20:57.492Z,20
2018-12-06T07:21:57.475Z,20
2018-12-06T07:22:57.218Z,20
2018-12-06T07:23:56.698Z,20
2018-12-06T07:24:57.586Z,20
2018-12-06T07:25:57.166Z,20
2018-12-06T07:26:57.464Z,20
2018-12-06T07:27:57.142Z,20
2018-12-06T07:28:57.393Z,20
2018-12-06T07:29:58.150Z,20
2018-12-06T07:30:57.325Z,20
2018-12-06T07:31:57.056Z,15
2018-12-06T07:32:57.042Z,15
2018-12-06T07:33:57.279Z,15
2018-12-06T07:34:57.272Z,15
2018-12-06T07:35:57.254Z,15
2018-12-06T07:36:56.986Z,15
2018-12-06T07:37:57.297Z,15
2018-12-06T07:38:56.950Z,15
2018-12-06T07:39:57.177Z,15
2018-12-06T07:40:57.158Z,20
2018-12-06T07:41:57.143Z,20
2018-12-06T07:42:56.884Z,20
2018-12-06T07:43:57.126Z,20
2018-12-06T07:44:57.099Z,20
2018-12-06T07:45:57.075Z,20
2018-12-06T07:46:57.060Z,20
2018-12-06T07:47:57.041Z,20
2018-12-06T07:48:56.789Z,20
2018-12-06T07:49:56.766Z,20
2018-12-06T07:50:56.993Z,25
2018-12-06T07:51:56.984Z,25
2018-12-06T07:52:56.960Z,25
2018-12-06T07:53:56.942Z,30
2018-12-06T07:54:56.933Z,30
2018-12-06T07:55:56.927Z,35
2018-12-06T07:56:56.645Z,35
2018-12-06T07:57:56.628Z,35
2018-12-06T07:58:56.878Z,35
2018-12-06T07:59:56.352Z,35
2018-12-06T08:00:56.832Z,35
2018-12-06T08:01:56.567Z,40
2018-12-06T08:02:56.547Z,40
2018-12-06T08:03:57.185Z,45
2018-12-06T08:04:56.603Z,45
2018-12-06T08:05:56.499Z,40
2018-12-06T08:06:56.237Z,40
2018-12-06T08:07:56.721Z,35
2018-12-06T08:08:56.702Z,35
2018-12-06T08:09:56.683Z,30
2018-12-06T08:10:56.665Z,30
2018-12-06T08:11:56.661Z,30
2018-12-06T08:12:56.633Z,30
2018-12-06T08:13:56.612Z,35
2018-12-06T08:14:56.350Z,35
2018-12-06T08:15:56.333Z,40
2018-12-06T08:16:56.316Z,40
2018-12-06T08:17:56.557Z,45
2018-12-06T08:18:56.532Z,50
2018-12-06T08:19:56.580Z,50
2018-12-06T08:20:56.509Z,55
2018-12-06T08:21:56.485Z,55
2018-12-06T08:22:56.473Z,55
2018-12-06T08:23:56.447Z,50
2018-12-06T08:24:56.438Z,50
2018-12-06T08:25:56.419Z,45
2018-12-06T08:26:56.228Z,40
2018-12-06T08:27:56.385Z,40
2018-12-06T08:28:56.372Z,35
2018-12-06T08:29:56.437Z,35
2018-12-06T08:30:56.346Z,35
2018-12-06T08:31:56.073Z,40
2018-12-06T08:32:56.058Z,45
2018-12-06T08:33:56.295Z,50
2018-12-06T08:34:56.282Z,60
2018-12-06T08:35:56.254Z,60
2018-12-06T08:36:56.248Z,65
2018-12-06T08:37:56.226Z,65
2018-12-06T08:38:55.959Z,60
2018-12-06T08:39:56.188Z,60
2018-12-06T08:40:56.176Z,60
2018-12-06T08:41:56.151Z,60
2018-12-06T08:42:56.145Z,65
2018-12-06T08:43:55.881Z,70
2018-12-06T08:44:56.109Z,70
2018-12-06T08:45:56.092Z,70
2018-12-06T08:46:56.074Z,70
2018-12-06T08:47:56.056Z,70
2018-12-06T08:49:02.797Z,65
2018-12-06T08:49:56.129Z,65
2018-12-06T08:50:55.760Z,65
2018-12-06T08:51:56.010Z,65
2018-12-06T08:52:55.728Z,65
2018-12-06T08:53:55.711Z,65
2018-12-06T08:54:55.950Z,60
2018-12-06T08:55:55.931Z,60
2018-12-06T08:56:55.921Z,60
2018-12-06T08:57:55.894Z,60
2018-12-06T08:58:56.173Z,65
2018-12-06T08:59:55.879Z,65
2018-12-06T09:00:55.853Z,70
2018-12-06T09:01:55.588Z,70
2018-12-06T09:02:55.580Z,80
2018-12-06T09:03:55.802Z,80
2018-12-06T09:04:55.784Z,80
2018-12-06T09:05:55.526Z,80
2018-12-06T09:06:55.511Z,90
2018-12-06T09:07:56.168Z,100
2018-12-06T09:08:55.723Z,100
2018-12-06T09:09:55.702Z,100
2018-12-06T09:11:01.256Z,100
2018-12-06T09:11:55.465Z,105
2018-12-06T09:12:55.170Z,110
2018-12-06T09:13:55.645Z,110
2018-12-06T09:14:55.376Z,115
2018-12-06T09:15:55.912Z,115
2018-12-06T09:16:55.598Z,120
2018-12-06T09:17:55.627Z,120
2018-12-06T09:18:55.564Z,125
2018-12-06T09:19:55.557Z,130
2018-12-06T09:20:55.286Z,130
2018-12-06T09:21:55.530Z,125
2018-12-06T09:22:55.499Z,110
2018-12-06T09:23:55.506Z,95
2018-12-06T09:24:55.219Z,90
2018-12-06T09:25:55.936Z,90
2018-12-06T09:27:01.345Z,90
2018-12-06T09:27:55.428Z,90
2018-12-06T09:28:55.411Z,95
2018-12-06T09:29:55.390Z,105
2018-12-06T09:31:00.955Z,115
2018-12-06T09:31:55.362Z,125
2018-12-06T09:32:55.343Z,145
2018-12-06T09:33:55.344Z,165
2018-12-06T09:34:55.312Z,185
2018-12-06T09:35:55.302Z,205
2018-12-06T09:36:55.290Z,210
2018-12-06T09:37:55.281Z,210
2018-12-06T09:38:55.253Z,200
2018-12-06T09:39:54.989Z,180
2018-12-06T09:40:55.224Z,155
2018-12-06T09:41:55.205Z,135
2018-12-06T09:42:55.192Z,120
2018-12-06T09:43:54.927Z,120
2018-12-06T09:44:55.170Z,115
2018-12-06T09:45:55.156Z,110
2018-12-06T09:46:54.886Z,105
2018-12-06T09:47:55.129Z,100
2018-12-06T09:48:55.102Z,100
2018-12-06T09:49:55.091Z,95
2018-12-06T09:50:55.025Z,100
2018-12-06T09:51:55.067Z,95
2018-12-06T09:52:54.805Z,90
2018-12-06T09:53:55.029Z,85
2018-12-06T09:54:55.015Z,80
2018-12-06T09:55:54.498Z,80
2018-12-06T09:56:54.754Z,80
2018-12-06T09:57:54.984Z,85
2018-12-06T09:58:54.992Z,90
2018-12-06T09:59:56.503Z,105
2018-12-06T10:00:54.687Z,125
2018-12-06T10:01:54.922Z,135
2018-12-06T10:02:54.401Z,135
2018-12-06T10:03:54.891Z,125
2018-12-06T10:04:54.865Z,110
2018-12-06T10:05:54.886Z,100
2018-12-06T10:06:54.590Z,95
2018-12-06T10:07:54.832Z,90
2018-12-06T10:08:54.814Z,90
2018-12-06T10:09:54.882Z,85
2018-12-06T10:10:54.787Z,85
2018-12-06T10:11:54.521Z,95
2018-12-06T10:12:54.752Z,105
2018-12-06T10:13:54.740Z,115
2018-12-06T10:14:54.726Z,130
2018-12-06T10:15:54.709Z,140
2018-12-06T10:16:54.700Z,140
2018-12-06T10:17:54.442Z,135
2018-12-06T10:18:54.678Z,130
2018-12-06T10:19:54.406Z,125
2018-12-06T10:20:54.641Z,125
2018-12-06T10:21:54.380Z,135
2018-12-06T10:22:54.370Z,150
2018-12-06T10:23:54.353Z,170
2018-12-06T10:24:54.346Z,150
2018-12-06T10:25:54.570Z,115
2018-12-06T10:26:54.567Z,105
2018-12-06T10:27:54.633Z,115
2018-12-06T10:28:54.288Z,110
2018-12-06T10:29:54.511Z,115
2018-12-06T10:30:54.505Z,125
2018-12-06T10:31:54.248Z,155
2018-12-06T10:32:54.233Z,190
2018-12-06T10:33:53.961Z,195
2018-12-06T10:35:00.646Z,180
2018-12-06T10:35:54.183Z,185
2018-12-06T10:36:54.418Z,180
2018-12-06T10:37:54.155Z,130
2018-12-06T10:38:54.391Z,110
2018-12-06T10:39:55.428Z,110
2018-12-06T10:40:54.369Z,105
2018-12-06T10:41:53.935Z,115
2018-12-06T10:42:54.081Z,120
2018-12-06T10:43:53.838Z,115
2018-12-06T10:44:54.307Z,115
2018-12-06T10:45:54.292Z,120
2018-12-06T10:46:54.281Z,135
2018-12-06T10:47:54.271Z,145
2018-12-06T10:48:54.256Z,150
2018-12-06T10:49:53.993Z,150
2018-12-06T10:50:53.976Z,145
2018-12-06T10:51:53.720Z,140
2018-12-06T10:52:54.204Z,140
2018-12-06T10:53:54.192Z,145
2018-12-06T10:54:54.171Z,150
2018-12-06T10:55:54.160Z,155
2018-12-06T10:56:53.650Z,165
2018-12-06T10:57:53.889Z,185
2018-12-06T10:58:54.127Z,195
2018-12-06T10:59:54.108Z,190
2018-12-06T11:00:59.637Z,180
2018-12-06T11:01:54.100Z,165
2018-12-06T11:02:54.071Z,175
2018-12-06T11:03:54.056Z,175
2018-12-06T11:04:54.043Z,160
2018-12-06T11:05:54.026Z,140
2018-12-06T11:06:54.015Z,135
2018-12-06T11:07:54.010Z,150
2018-12-06T11:08:53.739Z,160
2018-12-06T11:09:53.976Z,155
2018-12-06T11:10:53.715Z,145
2018-12-06T11:11:53.714Z,105
2018-12-06T11:12:53.941Z,95
2018-12-06T11:13:53.921Z,100
2018-12-06T11:14:53.916Z,105
2018-12-06T11:15:53.896Z,115
2018-12-06T11:16:53.883Z,125
2018-12-06T11:17:53.867Z,135
2018-12-06T11:18:53.617Z,135
2018-12-06T11:19:53.851Z,150
2018-12-06T11:20:53.836Z,150
2018-12-06T11:21:53.813Z,145
2018-12-06T11:22:53.804Z,145
2018-12-06T11:23:54.887Z,145
2018-12-06T11:24:53.525Z,130
2018-12-06T11:25:53.760Z,135
2018-12-06T11:26:53.755Z,135
2018-12-06T11:27:53.731Z,140
2018-12-06T11:28:53.723Z,135
2018-12-06T11:29:53.705Z,135
2018-12-06T11:30:53.447Z,135
2018-12-06T11:31:53.681Z,135
2018-12-06T11:32:53.418Z,120
2018-12-06T11:33:53.470Z,125
2018-12-06T11:34:53.389Z,115
2018-12-06T11:35:53.644Z,110
2018-12-06T11:36:53.612Z,110
2018-12-06T11:37:53.596Z,110
2018-12-06T11:38:53.590Z,105
2018-12-06T11:39:53.328Z,115
2018-12-06T11:40:53.563Z,125
2018-12-06T11:41:53.299Z,130
2018-12-06T11:42:53.531Z,135
2018-12-06T11:43:53.270Z,140
2018-12-06T11:44:53.269Z,145
2018-12-06T11:45:53.245Z,145
2018-12-06T11:46:53.235Z,140
2018-12-06T11:47:53.468Z,140
2018-12-06T11:48:53.453Z,150
2018-12-06T11:49:53.436Z,145
2018-12-06T11:50:53.419Z,130
2018-12-06T11:51:53.158Z,135
2018-12-06T11:52:53.393Z,135
2018-12-06T11:53:53.382Z,130
2018-12-06T11:54:53.130Z,120
2018-12-06T11:55:53.363Z,120
2018-12-06T11:56:53.339Z,130
2018-12-06T11:57:53.079Z,130
2018-12-06T11:58:53.321Z,125
2018-12-06T11:59:53.053Z,110
2018-12-06T12:00:53.051Z,95
2018-12-06T12:01:53.027Z,80
2018-12-06T12:02:53.260Z,100
2018-12-06T12:03:53.255Z,110
2018-12-06T12:04:53.236Z,120
2018-12-06T12:06:00.945Z,135
2018-12-06T12:06:53.203Z,135
2018-12-06T12:07:52.940Z,140
2018-12-06T12:08:52.933Z,140
2018-12-06T12:09:53.166Z,145
2018-12-06T12:10:53.147Z,135
2018-12-06T12:11:53.148Z,125
2018-12-06T12:12:53.125Z,135
2018-12-06T12:13:52.616Z,135
2018-12-06T12:14:53.435Z,125
2018-12-06T12:15:52.840Z,95
2018-12-06T12:16:53.061Z,95
2018-12-06T12:17:53.136Z,110
2018-12-06T12:18:52.573Z,125
2018-12-06T12:19:52.540Z,130
2018-12-06T12:20:52.769Z,140
2018-12-06T12:21:52.996Z,135
2018-12-06T12:22:52.982Z,130
2018-12-06T12:23:52.975Z,125
2018-12-06T12:24:52.957Z,125
2018-12-06T12:25:52.941Z,125
2018-12-06T12:26:52.928Z,145
2018-12-06T12:27:52.918Z,145
2018-12-06T12:28:52.668Z,140
2018-12-06T12:29:52.892Z,140
2018-12-06T12:30:52.870Z,120
2018-12-06T12:31:52.855Z,100
2018-12-06T12:32:52.846Z,110
2018-12-06T12:33:52.831Z,120
2018-12-06T12:34:52.653Z,130
2018-12-06T12:35:52.557Z,120
2018-12-06T12:36:52.790Z,120
2018-12-06T12:37:52.279Z,115
2018-12-06T12:38:52.766Z,105
2018-12-06T12:39:52.743Z,85
2018-12-06T12:40:52.488Z,85
2018-12-06T12:41:52.720Z,110
2018-12-06T12:42:52.713Z,125
2018-12-06T12:43:52.689Z,120
2018-12-06T12:44:52.679Z,115
2018-12-06T12:45:52.674Z,95
2018-12-06T12:46:52.658Z,75
2018-12-06T12:47:52.140Z,75
2018-12-06T12:48:52.383Z,95
2018-12-06T12:49:52.698Z,100
2018-12-06T12:50:52.345Z,100
2018-12-06T12:51:52.081Z,105
2018-12-06T12:52:52.649Z,115
2018-12-06T12:53:52.556Z,115
2018-12-06T12:54:52.541Z,105
2018-12-06T12:55:52.539Z,100
2018-12-06T12:56:52.012Z,100
2018-12-06T12:57:52.495Z,90
2018-12-06T12:58:52.494Z,90
2018-12-06T12:59:52.472Z,85
2018-12-06T13:00:52.452Z,85
2018-12-06T13:01:52.524Z,90
2018-12-06T13:02:52.434Z,90
2018-12-06T13:03:52.413Z,90
2018-12-06T13:04:52.393Z,75
2018-12-06T13:05:52.389Z,70
2018-12-06T13:06:52.374Z,90
2018-12-06T13:07:52.357Z,105
2018-12-06T13:08:52.099Z,110
2018-12-06T13:09:52.078Z,110
2018-12-06T13:10:52.314Z,105
2018-12-06T13:11:52.307Z,105
2018-12-06T13:12:52.298Z,105
2018-12-06T13:13:52.034Z,100
2018-12-06T13:14:52.015Z,100
2018-12-06T13:15:52.247Z,100
2018-12-06T13:16:52.237Z,100
2018-12-06T13:17:52.216Z,100
2018-12-06T13:18:51.966Z,95
2018-12-06T13:19:52.196Z,85
2018-12-06T13:20:51.686Z,80
2018-12-06T13:21:51.912Z,70
2018-12-06T13:22:52.149Z,65
2018-12-06T13:23:51.889Z,65
2018-12-06T13:24:52.135Z,60
2018-12-06T13:25:52.112Z,55
2018-12-06T13:26:52.093Z,55
2018-12-06T13:27:52.076Z,55
2018-12-06T13:28:52.114Z,45
2018-12-06T13:29:52.061Z,50
2018-12-06T13:30:52.036Z,50
2018-12-06T13:31:52.879Z,65
2018-12-06T13:32:52.009Z,60
2018-12-06T13:33:51.996Z,55
2018-12-06T13:34:52.254Z,50
2018-12-06T13:35:51.717Z,50
2018-12-06T13:36:51.956Z,45
2018-12-06T13:37:51.945Z,45
2018-12-06T13:38:51.931Z,50
2018-12-06T13:39:51.665Z,45
2018-12-06T13:40:51.892Z,50
2018-12-06T13:41:51.883Z,50
2018-12-06T13:42:51.871Z,45
2018-12-06T13:43:51.852Z,45
2018-12-06T13:44:51.838Z,45
2018-12-06T13:45:51.903Z,40
2018-12-06T13:46:51.572Z,40
2018-12-06T13:47:51.802Z,45
2018-12-06T13:48:52.046Z,40
2018-12-06T13:49:51.519Z,50
2018-12-06T13:50:51.753Z,55
2018-12-06T13:51:51.582Z,55
2018-12-06T13:52:51.727Z,50
2018-12-06T13:53:51.708Z,50
2018-12-06T13:54:51.698Z,55
2018-12-06T13:55:51.431Z,55
2018-12-06T13:56:51.416Z,55
2018-12-06T13:57:51.408Z,55
2018-12-06T13:58:51.638Z,60
2018-12-06T13:59:51.628Z,65
2018-12-06T14:00:53.418Z,60
2018-12-06T14:01:51.349Z,60
2018-12-06T14:02:51.582Z,55
2018-12-06T14:03:51.327Z,55
2018-12-06T14:04:51.558Z,55
2018-12-06T14:05:51.536Z,55
2018-12-06T14:06:51.522Z,55
2018-12-06T14:07:51.506Z,50
2018-12-06T14:08:51.543Z,50
2018-12-06T14:09:51.478Z,45
2018-12-06T14:10:51.478Z,50
2018-12-06T14:11:51.446Z,50
2018-12-06T14:12:51.436Z,50
2018-12-06T14:13:51.420Z,50
2018-12-06T14:14:52.513Z,50
2018-12-06T14:15:51.174Z,50
2018-12-06T14:16:51.381Z,45
2018-12-06T14:17:51.360Z,45
2018-12-06T14:18:51.348Z,45
2018-12-06T14:19:51.085Z,40
2018-12-06T14:20:50.820Z,40
2018-12-06T14:21:51.065Z,40
2018-12-06T14:22:51.291Z,40